NO-0057 weather

Tønsberg Heliport, Hospital
Tønsberg, Vestfold, Norway

Public forecast

Using degrees Celsius for public forecast. Weather courtesy of forecast.io.

Closest aviation weather report (METAR) to Tønsberg Heliport, Hospital

Closest report is Sandefjord Airport, Torp, 7.1 nm (13.2 km) SW. Retrieved 2020/06/01 04:50 UTC (23 minutes ago):

ENTO 010450Z 34002KT CAVOK 13/08 Q1030 NOSIG

Closest aviation forecast (TAF) to Tønsberg Heliport, Hospital

Closest forecast is Sandefjord Airport, Torp, 7.1 nm (13.2 km) SW. Retrieved 2020-06-01 00:03 UTC (5 hours ago):

TAF TAF ENTO 312300Z 0100/0124 VRB05KT CAVOK